Picassent, Spain
Current Conditions -  °F | °C
As of 2:30 PM on Sunday 23 Nov 2014 (Local Time) from LEVC Reporting Station
Few Clouds Few Clouds  
Wind Chill: 68°   Ceiling: Unl
Heat Index: 68°   Visibility: 6mi
Dew Point: 61°   Wind: 8mph
Humidity: 78%   Direction: 50°NE
Pressure: 29.97"   Gusts: NA
Location:  39.37°N, 0.45°W
Report Text: LEVC 231330Z 05007KT 020V080 9999 FEW025 20/16 Q1015 NOSIG
Loading
Personal Weather Stations






























Interactive Weather Map New forecast layout! Learn more

10-Day Weather Forecast

Advertisements
Track Severe Weather on mobile